Time;durP1;ratioP1;P1;durP2;ratioP2;P2;SDS_P1;SDS_P2;PMS_P1;PMS_P2;Temp;Humidity;BMP_temperature;BMP_pressure;BME280_temperature;BME280_humidity;BME280_pressure;Samples;Min_cycle;Max_cycle;Signal;HPM_P1;HPM_P2
2021/06/13 00:00:13;;;;;;;9.60;4.70;;;;;;;15.34;81.79;98710.56;1685845;84;21058;-70
2021/06/13 00:02:39;;;;;;;6.80;4.90;;;;;;;15.35;81.93;98712.19;1679014;84;21629;-70
2021/06/13 00:05:07;;;;;;;7.15;4.67;;;;;;;15.37;82.12;98698.16;1718542;82;21003;-70
2021/06/13 00:07:34;;;;;;;6.75;4.20;;;;;;;15.39;82.22;98698.06;1731821;82;21030;-70
2021/06/13 00:10:00;;;;;;;;;;;;;;;15.44;82.15;98699.83;1730120;81;21046;-70
2021/06/13 00:12:27;;;;;;;7.13;5.23;;;;;;;15.46;82.10;98698.92;1724081;81;20511;-70
2021/06/13 00:14:55;;;;;;;6.25;4.80;;;;;;;15.37;82.24;98696.20;1719875;82;21645;-68
2021/06/13 00:17:21;;;;;;;10.13;4.53;;;;;;;15.36;82.18;98694.61;1741612;82;20976;-70
2021/06/13 00:19:47;;;;;;;;;;;;;;;15.40;82.01;98681.86;1736525;82;21557;-70
2021/06/13 00:22:14;;;;;;;5.40;4.35;;;;;;;15.42;81.76;98675.46;1718554;82;20153;-70
2021/06/13 00:24:40;;;;;;;6.35;4.75;;;;;;;15.37;81.65;98678.97;1659387;85;21055;-70
2021/06/13 00:27:07;;;;;;;7.47;5.03;;;;;;;15.36;81.71;98670.49;1682206;85;21018;-70
2021/06/13 00:29:34;;;;;;;8.88;4.83;;;;;;;15.35;81.78;98666.13;1685895;83;21601;-70
2021/06/13 00:32:00;;;;;;;7.25;4.47;;;;;;;15.36;81.84;98660.89;1668712;86;21054;-71
2021/06/13 00:34:27;;;;;;;7.92;5.05;;;;;;;15.37;81.85;98657.03;1697641;84;21124;-70
2021/06/13 00:36:53;;;;;;;7.05;4.50;;;;;;;15.33;81.79;98652.77;1699080;84;20981;-70
2021/06/13 00:39:20;;;;;;;8.03;5.15;;;;;;;15.29;81.86;98655.92;1695845;84;21563;-70
2021/06/13 00:41:46;;;;;;;5.87;4.97;;;;;;;15.29;81.92;98653.74;1685144;84;21084;-70
2021/06/13 00:44:13;;;;;;;7.80;4.78;;;;;;;15.28;81.94;98650.20;1683260;84;21052;-70
2021/06/13 00:46:40;;;;;;;6.05;5.03;;;;;;;15.30;81.95;98648.51;1696140;84;21451;-71
2021/06/13 00:49:08;;;;;;;6.87;5.12;;;;;;;15.30;81.81;98647.91;1700894;84;21645;-70
2021/06/13 00:51:35;;;;;;;6.83;4.95;;;;;;;15.27;81.78;98641.72;1685721;84;21000;-70
2021/06/13 00:54:03;;;;;;;8.00;5.08;;;;;;;15.25;81.81;98645.37;1681570;84;21106;-70
2021/06/13 00:56:31;;;;;;;8.40;5.40;;;;;;;15.23;81.82;98647.62;1676278;84;21047;-70
2021/06/13 00:58:57;;;;;;;6.42;5.10;;;;;;;15.21;81.84;98638.93;1656067;85;21042;-70
2021/06/13 01:01:23;;;;;;;9.05;5.03;;;;;;;15.21;81.89;98645.78;1678008;84;20999;-70
2021/06/13 01:03:51;;;;;;;8.98;5.50;;;;;;;15.20;81.90;98634.58;1674043;84;21621;-71
2021/06/13 01:06:23;;;;;;;6.45;5.20;;;;;;;15.19;81.87;98634.36;1694933;84;20996;-71
2021/06/13 01:08:56;;;;;;;7.58;4.83;;;;;;;15.15;81.97;98632.03;1681603;84;21103;-70
2021/06/13 01:11:44;;;;;;;7.45;5.10;;;;;;;15.14;81.95;98628.23;1693280;84;21087;-70
2021/06/13 01:14:31;;;;;;;6.92;4.90;;;;;;;15.16;81.73;98629.50;1691645;84;21118;-71
2021/06/13 01:17:07;;;;;;;7.58;4.67;;;;;;;15.15;81.51;98633.97;1681252;84;21569;-71
2021/06/13 01:20:01;;;;;;;6.62;4.30;;;;;;;15.14;81.48;98629.05;1673244;86;21616;-71
2021/06/13 01:23:08;;;;;;;6.85;4.62;;;;;;;15.10;81.28;98627.28;1629268;84;21039;-70
2021/06/13 01:26:17;;;;;;;6.62;5.17;;;;;;;15.00;81.34;98625.70;1680701;84;21054;-70
2021/06/13 01:28:58;;;;;;;8.10;5.22;;;;;;;14.94;81.58;98625.09;1686001;84;21431;-70
2021/06/13 01:31:40;;;;;;;6.97;5.80;;;;;;;14.85;81.83;98618.00;1635180;87;21014;-70
2021/06/13 01:34:13;;;;;;;8.23;5.17;;;;;;;14.80;81.86;98612.72;1640588;87;21075;-70
2021/06/13 01:36:39;;;;;;;7.40;5.55;;;;;;;14.78;81.82;98608.11;1651299;86;21012;-70
2021/06/13 01:39:08;;;;;;;;;;;;;;;14.76;81.82;98606.28;1669908;86;21111;-69
2021/06/13 01:41:35;;;;;;;8.05;5.10;;;;;;;14.74;81.90;98599.74;1633541;86;20125;-71
2021/06/13 01:44:03;;;;;;;8.15;5.17;;;;;;;14.66;82.20;98595.11;1628631;86;21035;-70
2021/06/13 01:46:32;;;;;;;5.90;5.28;;;;;;;14.66;82.41;98586.89;1672838;86;21015;-71
2021/06/13 01:49:00;;;;;;;6.25;4.75;;;;;;;14.69;82.54;98588.16;1657553;86;21580;-70
2021/06/13 01:51:26;;;;;;;7.28;4.65;;;;;;;14.70;82.59;98581.56;1656502;86;21495;-70
2021/06/13 01:53:52;;;;;;;;;;;;;;;14.72;82.64;98585.58;1659278;86;21075;-70
2021/06/13 01:56:21;;;;;;;7.20;4.72;;;;;;;14.73;82.74;98583.09;1672778;86;20121;-70
2021/06/13 01:58:49;;;;;;;6.25;4.40;;;;;;;14.67;83.03;98585.73;1645976;86;21115;-70
2021/06/13 02:01:21;;;;;;;6.78;4.80;;;;;;;14.67;83.15;98585.73;1650720;85;21032;-70
2021/06/13 02:03:50;;;;;;;6.58;4.90;;;;;;;14.65;83.25;98588.02;1670350;86;21126;-70
2021/06/13 02:06:39;;;;;;;7.15;4.67;;;;;;;14.71;83.20;98585.89;1674355;84;21602;-72
2021/06/13 02:09:08;;;;;;;7.80;4.53;;;;;;;14.75;83.04;98582.19;1634902;87;21083;-72
2021/06/13 02:11:36;;;;;;;11.10;5.15;;;;;;;14.79;82.86;98582.33;1642705;86;21023;-72
2021/06/13 02:14:03;;;;;;;9.88;5.05;;;;;;;14.82;82.73;98581.11;1642255;86;21672;-72
2021/06/13 02:16:32;;;;;;;7.83;4.42;;;;;;;14.86;82.67;98575.22;1684028;84;21023;-72
2021/06/13 02:18:59;;;;;;;6.55;4.33;;;;;;;14.91;82.56;98574.25;1692647;84;21626;-72
2021/06/13 02:21:28;;;;;;;7.70;4.97;;;;;;;14.93;82.52;98573.34;1696304;84;21004;-72
2021/06/13 02:23:55;;;;;;;6.55;5.05;;;;;;;14.91;82.51;98564.66;1687002;84;21158;-72
2021/06/13 02:26:22;;;;;;;5.83;4.45;;;;;;;14.91;82.55;98564.06;1694728;84;21558;-73
2021/06/13 02:28:56;;;;;;;7.15;4.40;;;;;;;14.94;82.46;98563.44;1700570;83;21103;-72
2021/06/13 02:31:30;;;;;;;5.40;4.78;;;;;;;14.97;82.38;98563.34;1697201;83;20995;-72
2021/06/13 02:33:58;;;;;;;7.70;4.78;;;;;;;14.99;82.33;98565.17;1676706;84;21609;-73
2021/06/13 02:36:25;;;;;;;7.78;4.47;;;;;;;15.02;82.28;98555.51;1651000;84;21020;-71
2021/06/13 02:38:57;;;;;;;6.35;4.75;;;;;;;15.04;82.29;98560.89;1696173;84;21126;-71
2021/06/13 02:41:26;;;;;;;7.30;4.87;;;;;;;15.08;82.22;98557.73;1694780;84;21479;-71
2021/06/13 02:43:52;;;;;;;7.20;4.80;;;;;;;15.12;82.28;98560.62;1677174;84;21139;-71
2021/06/13 02:46:20;;;;;;;5.47;4.53;;;;;;;15.19;82.22;98558.16;1742835;82;21015;-71
2021/06/13 02:48:47;;;;;;;7.53;4.75;;;;;;;15.17;82.20;98544.77;1739511;82;21071;-71
2021/06/13 02:51:15;;;;;;;6.50;4.45;;;;;;;15.30;82.19;98559.40;1740118;82;21545;-71
2021/06/13 02:53:47;;;;;;;7.70;5.58;;;;;;;15.40;81.97;98552.16;1740576;82;21228;-71
2021/06/13 02:56:49;;;;;;;10.40;6.33;;;;;;;15.51;81.76;98549.30;1742455;82;21003;-71
2021/06/13 02:59:27;;;;;;;8.35;6.00;;;;;;;15.58;81.51;98552.33;1745221;82;21055;-71
2021/06/13 03:01:54;;;;;;;8.55;6.20;;;;;;;15.59;81.53;98549.80;1741213;82;20999;-71
2021/06/13 03:04:22;;;;;;;7.10;5.58;;;;;;;15.61;81.54;98553.59;1746877;82;21583;-71
2021/06/13 03:06:56;;;;;;;7.72;5.00;;;;;;;15.68;81.54;98553.86;1747400;82;20972;-70
2021/06/13 03:09:25;;;;;;;10.85;5.17;;;;;;;15.81;81.66;98552.23;1732302;81;21099;-70
2021/06/13 03:11:53;;;;;;;8.68;4.70;;;;;;;15.98;81.41;98551.28;1730089;82;20987;-71
2021/06/13 03:14:21;;;;;;;7.47;4.53;;;;;;;16.14;80.90;98545.99;1699150;82;21034;-71
2021/06/13 03:16:48;;;;;;;6.20;4.50;;;;;;;16.27;80.67;98544.89;1718327;82;20971;-71
2021/06/13 03:19:15;;;;;;;5.95;4.60;;;;;;;16.48;80.37;98540.72;1733126;82;21665;-71
2021/06/13 03:21:42;;;;;;;6.80;4.40;;;;;;;16.76;79.78;98540.36;1747517;82;21455;-70
2021/06/13 03:24:09;;;;;;;7.03;4.00;;;;;;;17.03;79.19;98535.60;1718211;82;21040;-70
2021/06/13 03:26:37;;;;;;;9.40;4.28;;;;;;;17.30;78.50;98542.35;1731883;82;21059;-70
2021/06/13 03:29:03;;;;;;;5.15;3.98;;;;;;;17.49;77.01;98537.08;1739570;81;21696;-70
2021/06/13 03:31:32;;;;;;;6.00;4.15;;;;;;;17.67;75.99;98538.46;1712752;82;20996;-70
2021/06/13 03:33:59;;;;;;;6.55;4.00;;;;;;;17.92;75.17;98532.32;1721142;82;21538;-70
2021/06/13 03:36:27;;;;;;;5.85;3.70;;;;;;;18.09;74.23;98538.91;1673497;82;20992;-70
2021/06/13 03:38:54;;;;;;;5.62;4.28;;;;;;;18.24;73.73;98530.48;1680308;82;21067;-70
2021/06/13 03:41:22;;;;;;;5.28;3.62;;;;;;;18.35;72.52;98526.07;1681275;84;21011;-71
2021/06/13 03:43:50;;;;;;;6.70;3.83;;;;;;;18.38;71.76;98528.92;1682673;84;21067;-70
2021/06/13 03:46:17;;;;;;;4.05;3.45;;;;;;;18.46;71.45;98530.50;1650045;84;21007;-70
2021/06/13 03:48:43;;;;;;;6.28;4.00;;;;;;;18.64;71.70;98533.96;1697286;84;21601;-71
2021/06/13 03:51:11;;;;;;;;;;;;;;;18.79;70.77;98534.56;1686785;84;21007;-71
2021/06/13 03:53:46;;;;;;;5.85;4.03;;;;;;;18.84;70.46;98534.31;1682307;84;20134;-70
2021/06/13 03:56:09;;;;;;;5.65;3.72;;;;;;;18.85;70.42;98535.89;1719815;82;21054;-70
2021/06/13 03:58:35;;;;;;;4.95;3.87;;;;;;;19.02;70.67;98538.90;1730004;82;21558;-70
2021/06/13 04:01:01;;;;;;;;;;;;;;;19.32;70.38;98537.84;1731135;82;20980;-70
2021/06/13 04:03:28;;;;;;;6.28;3.67;;;;;;;19.60;68.54;98538.53;1729991;82;20097;-70
2021/06/13 04:05:54;;;;;;;6.97;4.15;;;;;;;19.62;68.09;98536.23;1724065;82;20980;-70
2021/06/13 04:08:20;;;;;;;4.45;3.58;;;;;;;19.69;67.91;98530.87;1737030;82;21003;-71
2021/06/13 04:10:50;;;;;;;6.05;3.52;;;;;;;19.84;67.80;98526.43;1715342;82;21533;-70
2021/06/13 04:13:16;;;;;;;4.53;3.77;;;;;;;19.94;67.19;98536.94;1657757;86;21610;-71
2021/06/13 04:15:44;;;;;;;5.83;4.22;;;;;;;20.09;66.47;98531.09;1662798;85;21011;-70
2021/06/13 04:18:10;;;;;;;6.78;3.42;;;;;;;20.15;65.79;98524.14;1666362;85;21066;-70
2021/06/13 04:20:37;;;;;;;4.55;3.52;;;;;;;20.19;65.57;98524.41;1716274;82;21059;-71
2021/06/13 04:23:05;;;;;;;4.65;3.42;;;;;;;20.30;64.96;98531.56;1658784;86;21074;-70
2021/06/13 04:25:33;;;;;;;7.05;3.40;;;;;;;20.29;64.58;98528.02;1715647;82;21031;-72
2021/06/13 04:27:59;;;;;;;5.62;3.67;;;;;;;20.21;64.57;98521.30;1712491;82;21059;-71
2021/06/13 04:30:27;;;;;;;8.75;3.85;;;;;;;20.19;64.89;98526.40;1730054;81;21059;-70
2021/06/13 04:32:54;;;;;;;5.03;3.70;;;;;;;20.24;64.96;98526.89;1725034;82;21545;-70
2021/06/13 04:35:20;;;;;;;6.47;3.58;;;;;;;20.37;65.40;98526.17;1717897;82;20999;-71
2021/06/13 04:37:46;;;;;;;4.85;3.62;;;;;;;20.52;64.78;98526.67;1718236;82;21035;-71
2021/06/13 04:40:13;;;;;;;5.53;3.40;;;;;;;20.62;64.20;98526.06;1736056;82;21023;-71
2021/06/13 04:42:40;;;;;;;4.80;3.42;;;;;;;20.61;64.00;98529.21;1739206;82;21004;-70
2021/06/13 04:45:08;;;;;;;5.97;4.00;;;;;;;20.59;63.87;98538.44;1730565;82;21047;-70
2021/06/13 04:47:36;;;;;;;7.50;3.83;;;;;;;20.56;63.78;98532.27;1654084;86;20972;-70
2021/06/13 04:50:05;;;;;;;9.20;3.60;;;;;;;20.57;64.21;98535.25;1721037;82;21002;-70
2021/06/13 04:52:31;;;;;;;7.75;3.47;;;;;;;20.63;63.72;98529.05;1716007;82;20983;-70
2021/06/13 04:55:18;;;;;;;5.78;4.08;;;;;;;20.76;63.54;98528.31;1654203;86;21043;-70
2021/06/13 04:58:03;;;;;;;4.45;3.20;;;;;;;20.90;63.58;98529.95;1715983;82;21214;-70
2021/06/13 05:00:29;;;;;;;9.88;3.47;;;;;;;21.05;62.90;98517.94;1718992;82;21020;-70
2021/06/13 05:02:55;;;;;;;5.00;3.17;;;;;;;21.27;62.62;98524.65;1650231;86;21546;-71
2021/06/13 05:05:21;;;;;;;4.97;3.47;;;;;;;21.49;61.40;98521.05;1712902;82;21055;-71
2021/06/13 05:07:48;;;;;;;5.00;3.17;;;;;;;21.69;60.71;98520.33;1717867;82;20991;-71
2021/06/13 05:10:15;;;;;;;4.45;3.00;;;;;;;21.94;60.68;98508.23;1715288;82;21541;-69
2021/06/13 05:12:50;;;;;;;3.55;2.80;;;;;;;22.21;59.61;98500.08;1657269;84;21050;-71
2021/06/13 05:15:19;;;;;;;6.97;3.47;;;;;;;22.25;58.84;98507.82;1673046;84;21596;-71
2021/06/13 05:17:45;;;;;;;7.72;2.98;;;;;;;22.45;58.23;98500.14;1677213;84;21525;-71
2021/06/13 05:20:12;;;;;;;4.95;3.10;;;;;;;22.62;58.28;98507.26;1686321;84;21043;-71
2021/06/13 05:22:53;;;;;;;5.12;3.30;;;;;;;22.81;58.17;98499.36;1698787;84;20995;-70
2021/06/13 05:25:20;;;;;;;6.33;3.27;;;;;;;22.96;57.21;98505.22;1689284;84;21091;-71
2021/06/13 05:27:46;;;;;;;6.30;2.77;;;;;;;23.06;56.80;98494.02;1654269;86;21506;-72
2021/06/13 05:30:14;;;;;;;4.58;3.10;;;;;;;23.19;56.07;98497.50;1725768;82;21134;-70
2021/06/13 05:32:41;;;;;;;7.03;2.83;;;;;;;23.26;56.12;98498.14;1694915;84;21467;-70
2021/06/13 05:35:08;;;;;;;4.95;2.90;;;;;;;23.34;56.82;98495.62;1674136;84;21019;-70
2021/06/13 05:37:35;;;;;;;6.20;2.95;;;;;;;23.51;57.09;98504.70;1684973;84;21062;-69
2021/06/13 05:40:04;;;;;;;4.35;3.02;;;;;;;23.72;56.31;98508.99;1692122;84;21067;-70
2021/06/13 05:42:31;;;;;;;6.30;2.67;;;;;;;23.86;55.29;98511.05;1678406;84;21491;-72
2021/06/13 05:44:57;;;;;;;4.55;2.58;;;;;;;23.94;54.24;98504.34;1677548;84;21091;-70
2021/06/13 05:47:23;;;;;;;3.52;2.60;;;;;;;24.01;54.28;98514.11;1676802;84;21568;-70
2021/06/13 05:49:50;;;;;;;5.80;2.80;;;;;;;24.11;53.41;98502.23;1726265;82;21031;-71
2021/06/13 05:52:16;;;;;;;4.65;2.72;;;;;;;24.12;53.61;98493.31;1730270;82;20983;-70
2021/06/13 05:54:43;;;;;;;8.13;3.05;;;;;;;24.12;52.53;98504.43;1724551;82;21067;-70
2021/06/13 05:57:09;;;;;;;5.83;2.52;;;;;;;24.08;52.03;98500.83;1747200;82;21023;-71
2021/06/13 05:59:35;;;;;;;4.90;2.70;;;;;;;24.08;52.07;98500.25;1739687;82;21643;-70
2021/06/13 06:02:02;;;;;;;4.12;2.47;;;;;;;23.96;51.67;98497.80;1728517;82;21065;-69
2021/06/13 06:04:28;;;;;;;4.75;3.05;;;;;;;23.88;51.93;98506.50;1723966;82;21568;-69
2021/06/13 06:06:55;;;;;;;7.33;2.58;;;;;;;23.90;52.89;98512.45;1728922;82;21110;-69
2021/06/13 06:09:21;;;;;;;4.62;2.65;;;;;;;23.90;52.89;98512.45;1720549;82;21554;-70
2021/06/13 06:11:48;;;;;;;4.10;2.87;;;;;;;24.04;52.77;98510.55;1717935;82;21034;-70
2021/06/13 06:14:14;;;;;;;4.97;2.95;;;;;;;24.11;52.57;98517.53;1739662;82;21502;-69
2021/06/13 06:16:41;;;;;;;3.72;2.90;;;;;;;24.25;53.51;98510.67;1656561;85;21071;-71
2021/06/13 06:19:08;;;;;;;5.30;2.70;;;;;;;24.48;53.80;98517.28;1688483;84;21058;-69
2021/06/13 06:21:34;;;;;;;7.75;2.70;;;;;;;24.48;53.80;98517.28;1690870;84;21078;-68
2021/06/13 06:24:01;;;;;;;4.58;3.17;;;;;;;24.57;52.50;98518.30;1668846;85;21179;-68
2021/06/13 06:26:27;;;;;;;5.17;2.58;;;;;;;24.43;52.15;98519.66;1683036;84;21564;-70
2021/06/13 06:28:54;;;;;;;6.85;2.83;;;;;;;24.37;52.48;98505.94;1698182;84;21126;-69
2021/06/13 06:31:20;;;;;;;4.67;2.52;;;;;;;24.33;52.76;98507.32;1698921;83;21059;-70
2021/06/13 06:33:47;;;;;;;5.85;2.72;;;;;;;24.27;52.84;98515.23;1687802;84;21176;-69
2021/06/13 06:36:13;;;;;;;4.08;2.80;;;;;;;24.34;52.78;98519.24;1663829;86;21066;-69
2021/06/13 06:38:40;;;;;;;5.97;3.08;;;;;;;24.22;52.59;98519.80;1709308;84;21648;-71
2021/06/13 06:41:07;;;;;;;4.50;2.42;;;;;;;24.14;52.18;98532.66;1709751;84;21119;-69
2021/06/13 06:43:34;;;;;;;5.20;3.00;;;;;;;24.14;52.18;98532.66;1712190;82;21059;-70
2021/06/13 06:46:00;;;;;;;6.72;2.92;;;;;;;24.14;53.54;98540.41;1686332;85;21050;-70
2021/06/13 06:48:27;;;;;;;5.03;2.85;;;;;;;24.24;52.04;98538.85;1769554;81;21059;-71
2021/06/13 06:50:53;;;;;;;6.55;3.45;;;;;;;24.39;52.74;98531.36;1704148;84;21075;-71
2021/06/13 06:53:20;;;;;;;5.03;2.65;;;;;;;24.42;52.00;98537.52;1674660;85;21075;-70
2021/06/13 06:55:46;;;;;;;6.20;3.15;;;;;;;24.42;52.00;98537.52;1726135;82;21023;-71
2021/06/13 06:58:13;;;;;;;5.95;3.00;;;;;;;24.45;51.94;98543.69;1664009;86;21079;-71
2021/06/13 07:00:40;;;;;;;4.95;3.00;;;;;;;24.60;52.92;98546.14;1710430;82;21071;-70
2021/06/13 07:03:11;;;;;;;4.97;3.12;;;;;;;24.82;52.54;98542.02;1713546;82;21525;-70
2021/06/13 07:05:35;;;;;;;5.67;3.35;;;;;;;25.03;52.43;98547.05;1723095;82;21130;-70
2021/06/13 07:08:02;;;;;;;6.60;3.33;;;;;;;25.21;51.04;98541.49;1694414;84;21078;-71
2021/06/13 07:10:28;;;;;;;5.37;3.08;;;;;;;25.34;51.02;98544.66;1709617;84;21565;-70
2021/06/13 07:12:55;;;;;;;5.28;3.42;;;;;;;25.32;50.55;98542.89;1712973;82;21031;-71
2021/06/13 07:15:21;;;;;;;5.37;3.40;;;;;;;25.24;50.73;98543.48;1663745;86;21058;-70
2021/06/13 07:17:48;;;;;;;6.40;2.85;;;;;;;25.34;50.99;98540.48;1709929;84;21071;-71
2021/06/13 07:20:15;;;;;;;4.72;3.33;;;;;;;25.67;49.67;98535.33;1652819;86;21079;-71
2021/06/13 07:22:42;;;;;;;6.03;3.47;;;;;;;25.67;49.67;98535.33;1731488;82;20988;-70
2021/06/13 07:25:10;;;;;;;6.33;3.42;;;;;;;25.83;49.97;98538.26;1663846;86;21102;-69
2021/06/13 07:27:37;;;;;;;4.70;3.20;;;;;;;25.80;49.73;98541.85;1709899;84;20999;-70
2021/06/13 07:30:13;;;;;;;5.12;3.60;;;;;;;25.63;49.84;98543.48;1715159;82;21035;-69
2021/06/13 07:32:40;;;;;;;4.33;3.12;;;;;;;25.28;49.83;98540.70;1736936;82;20980;-70
2021/06/13 07:35:08;;;;;;;4.00;2.90;;;;;;;25.06;50.58;98546.84;1735196;82;20979;-70
2021/06/13 07:37:35;;;;;;;5.47;3.40;;;;;;;25.02;51.09;98548.83;1738541;82;21374;-71
2021/06/13 07:40:03;;;;;;;4.20;3.08;;;;;;;24.76;51.55;98548.58;1738778;82;21613;-70
2021/06/13 07:42:30;;;;;;;4.75;3.62;;;;;;;24.43;52.17;98552.45;1736386;82;21478;-69
2021/06/13 07:44:57;;;;;;;5.50;3.77;;;;;;;24.24;53.60;98556.34;1738454;82;21043;-70
2021/06/13 07:47:24;;;;;;;5.83;3.85;;;;;;;24.28;53.65;98549.40;1739427;82;21000;-71
2021/06/13 07:49:51;;;;;;;7.15;3.98;;;;;;;24.36;54.42;98548.84;1728758;82;21051;-70
2021/06/13 07:52:17;;;;;;;5.90;4.15;;;;;;;24.55;53.71;98555.47;1661639;86;21051;-70
2021/06/13 07:54:44;;;;;;;4.25;3.60;;;;;;;24.57;52.66;98553.08;1710251;82;21641;-68
2021/06/13 07:57:10;;;;;;;9.70;4.37;;;;;;;24.39;53.07;98560.56;1719251;82;21011;-70
2021/06/13 07:59:37;;;;;;;8.48;4.35;;;;;;;23.77;54.78;98562.02;1735533;82;21012;-70
2021/06/13 08:02:04;;;;;;;4.65;3.50;;;;;;;23.64;54.75;98567.66;1645280;86;21039;-70
2021/06/13 08:04:35;;;;;;;4.97;3.50;;;;;;;23.64;54.75;98567.66;1725093;82;21042;-69
2021/06/13 08:06:58;;;;;;;7.58;4.58;;;;;;;23.55;55.62;98571.38;1734233;82;21059;-69
2021/06/13 08:09:25;;;;;;;6.53;4.17;;;;;;;23.56;56.05;98563.27;1724418;82;21091;-70
2021/06/13 08:11:51;;;;;;;12.98;5.40;;;;;;;23.70;56.72;98571.08;1723625;82;20976;-71
2021/06/13 08:14:18;;;;;;;5.75;4.20;;;;;;;23.91;56.37;98577.98;1735148;82;21063;-70
2021/06/13 08:16:45;;;;;;;6.85;4.58;;;;;;;24.12;55.33;98576.71;1714533;82;21023;-71
2021/06/13 08:19:12;;;;;;;7.37;4.30;;;;;;;24.03;54.18;98572.08;1661556;86;21104;-70
2021/06/13 08:21:38;;;;;;;5.05;3.70;;;;;;;23.79;53.95;98577.70;1727984;82;21015;-70
2021/06/13 08:24:05;;;;;;;5.45;4.00;;;;;;;23.40;55.15;98577.38;1709955;83;21043;-70
2021/06/13 08:26:33;;;;;;;4.70;4.00;;;;;;;23.10;55.45;98585.83;1663825;86;21110;-70
2021/06/13 08:29:02;;;;;;;5.62;4.15;;;;;;;22.97;56.30;98591.47;1727208;82;21042;-71
2021/06/13 08:31:29;;;;;;;9.08;3.50;;;;;;;22.81;56.39;98594.45;1745464;81;21038;-72
2021/06/13 08:33:56;;;;;;;4.55;3.30;;;;;;;22.63;56.67;98596.23;1744577;82;21357;-72
2021/06/13 08:36:24;;;;;;;6.17;3.40;;;;;;;22.58;57.89;98597.94;1740461;81;21577;-71
2021/06/13 08:38:52;;;;;;;4.67;3.10;;;;;;;22.61;57.93;98607.47;1736886;82;21083;-72
2021/06/13 08:41:19;;;;;;;4.05;2.37;;;;;;;22.53;57.77;98597.49;1749595;82;21011;-69
2021/06/13 08:43:46;;;;;;;4.87;3.22;;;;;;;22.44;57.70;98592.81;1739206;82;21050;-72
2021/06/13 08:46:14;;;;;;;5.35;2.90;;;;;;;22.47;58.18;98592.05;1706489;82;21533;-71
2021/06/13 08:48:44;;;;;;;3.10;2.62;;;;;;;22.51;57.98;98602.60;1748712;82;21533;-73
2021/06/13 08:51:11;;;;;;;5.65;3.25;;;;;;;22.56;57.89;98591.98;1735117;82;21534;-73
2021/06/13 08:53:44;;;;;;;3.40;2.67;;;;;;;22.63;58.76;98600.97;1749787;82;21569;-73
2021/06/13 08:56:06;;;;;;;3.92;3.08;;;;;;;22.79;58.06;98594.64;1751741;82;21023;-72
2021/06/13 08:58:33;;;;;;;4.08;2.85;;;;;;;22.83;56.99;98594.67;1733864;82;21063;-74
2021/06/13 09:00:59;;;;;;;5.53;2.80;;;;;;;22.71;57.55;98594.34;1749088;82;21023;-71
2021/06/13 09:03:26;;;;;;;4.50;2.70;;;;;;;22.55;57.86;98611.77;1729648;82;21081;-72
2021/06/13 09:05:53;;;;;;;3.02;2.45;;;;;;;22.35;58.16;98618.06;1725761;82;21034;-73
2021/06/13 09:08:19;;;;;;;3.45;2.05;;;;;;;22.20;58.86;98614.89;1675374;85;21083;-73
2021/06/13 09:10:48;;;;;;;3.20;1.90;;;;;;;22.28;60.19;98621.52;1733644;82;21086;-72
2021/06/13 09:13:21;;;;;;;1.95;1.70;;;;;;;22.61;58.99;98608.27;1747990;82;21016;-74
2021/06/13 09:15:56;;;;;;;1.87;1.52;;;;;;;22.75;57.70;98607.67;1684461;85;21095;-73
2021/06/13 09:18:43;;;;;;;2.83;1.65;;;;;;;22.69;58.43;98605.03;1722921;83;21575;-72
2021/06/13 09:21:14;;;;;;;2.47;1.37;;;;;;;22.55;58.00;98607.02;1722862;83;21031;-73
2021/06/13 09:23:41;;;;;;;2.33;1.15;;;;;;;22.38;57.64;98616.51;1723012;83;21062;-74
2021/06/13 09:26:11;;;;;;;3.75;1.30;;;;;;;22.22;58.14;98624.42;1751135;82;20995;-72
2021/06/13 09:28:41;;;;;;;1.50;1.00;;;;;;;22.27;57.80;98619.94;1729425;82;21054;-73
2021/06/13 09:31:17;;;;;;;3.72;1.00;;;;;;;22.34;57.40;98623.39;1721444;82;21051;-74
2021/06/13 09:33:44;;;;;;;2.67;1.07;;;;;;;22.43;57.45;98620.31;1717831;83;21592;-72
2021/06/13 09:36:23;;;;;;;1.15;0.75;;;;;;;22.43;56.51;98618.93;1734361;82;20980;-74
2021/06/13 09:38:53;;;;;;;1.12;0.70;;;;;;;22.46;56.28;98624.52;1733409;82;21597;-74
2021/06/13 09:41:22;;;;;;;1.70;0.40;;;;;;;22.36;55.31;98623.80;1717836;83;21019;-72
2021/06/13 09:43:51;;;;;;;0.88;0.40;;;;;;;22.27;54.78;98626.07;1681065;85;21052;-74
2021/06/13 09:46:24;;;;;;;0.70;0.40;;;;;;;22.15;54.25;98636.79;1671403;84;21054;-73
2021/06/13 09:48:55;;;;;;;1.30;0.45;;;;;;;22.01;53.55;98628.28;1677894;84;21031;-73
2021/06/13 09:51:24;;;;;;;2.10;0.20;;;;;;;21.96;53.51;98630.00;1699139;84;21058;-73
2021/06/13 09:53:57;;;;;;;1.45;0.40;;;;;;;21.89;53.86;98635.98;1696818;84;21111;-73
2021/06/13 09:56:34;;;;;;;0.85;0.50;;;;;;;21.73;53.49;98652.16;1698163;84;21575;-73
2021/06/13 09:59:08;;;;;;;;;;;;;;;21.66;54.29;98634.05;1673238;86;21103;-74
2021/06/13 10:01:45;;;;;;;1.05;0.40;;;;;;;21.64;53.81;98635.02;1670778;86;20148;-73
2021/06/13 10:04:27;;;;;;;1.22;0.30;;;;;;;21.52;53.59;98652.39;1672223;84;21083;-73
2021/06/13 10:07:09;;;;;;;1.12;0.50;;;;;;;21.23;53.16;98664.36;1671093;84;21588;-74
2021/06/13 10:09:38;;;;;;;0.60;0.30;;;;;;;21.04;53.90;98661.61;1716093;82;21031;-74
2021/06/13 10:12:07;;;;;;;0.75;0.28;;;;;;;21.15;54.36;98658.47;1747157;82;21039;-74
2021/06/13 10:14:35;;;;;;;2.75;0.50;;;;;;;21.36;53.34;98661.42;1730497;82;21027;-73
2021/06/13 10:17:01;;;;;;;2.25;0.45;;;;;;;21.36;53.61;98646.20;1741922;82;21007;-73
2021/06/13 10:19:39;;;;;;;3.17;0.30;;;;;;;21.27;53.73;98647.23;1746936;82;21011;-73
2021/06/13 10:22:05;;;;;;;1.27;0.40;;;;;;;21.24;53.92;98659.05;1738323;82;20995;-74
2021/06/13 10:24:37;;;;;;;1.00;0.50;;;;;;;21.31;55.78;98648.09;1673365;85;21066;-73
2021/06/13 10:27:09;;;;;;;1.05;0.30;;;;;;;21.45;55.26;98635.66;1671031;86;21581;-73
2021/06/13 10:29:42;;;;;;;1.20;0.30;;;;;;;21.57;54.21;98627.17;1686157;84;21565;-74
2021/06/13 10:32:09;;;;;;;1.90;0.50;;;;;;;21.60;53.48;98630.00;1712221;83;21061;-74
2021/06/13 10:34:36;;;;;;;3.12;0.60;;;;;;;21.49;52.77;98633.17;1718880;83;21056;-72
2021/06/13 10:37:08;;;;;;;3.92;0.60;;;;;;;21.38;53.79;98632.20;1694408;83;21005;-73
2021/06/13 10:39:35;;;;;;;1.05;0.40;;;;;;;21.44;54.42;98619.63;1719120;83;21054;-75
2021/06/13 10:42:02;;;;;;;1.20;0.72;;;;;;;21.52;53.75;98627.47;1724565;83;21082;-73
2021/06/13 10:46:13;;;;;;;1.22;0.57;;;;;;;21.51;53.71;98616.98;1803746;79;22733;-73
2021/06/13 10:48:47;;;;;;;1.37;0.50;;;;;;;21.43;53.64;98626.94;1769142;80;21519;-71
2021/06/13 10:51:42;;;;;;;1.42;0.40;;;;;;;21.32;53.62;98628.95;1706081;83;21047;-73
2021/06/13 10:54:29;;;;;;;1.50;0.50;;;;;;;21.13;54.18;98631.75;1700664;83;21691;-72
2021/06/13 10:57:17;;;;;;;0.85;0.40;;;;;;;21.09;54.67;98648.04;1689298;85;21580;-73
2021/06/13 10:59:54;;;;;;;1.20;0.45;;;;;;;21.00;54.38;98651.05;1692955;83;21074;-72
2021/06/13 11:02:26;;;;;;;2.50;0.60;;;;;;;21.07;54.34;98666.41;1691531;85;21047;-74
2021/06/13 11:05:03;;;;;;;2.72;0.75;;;;;;;21.01;54.25;98665.09;1692975;83;21082;-73
2021/06/13 11:07:39;;;;;;;1.77;0.50;;;;;;;20.91;52.91;98672.59;1692839;85;21029;-74
2021/06/13 11:10:16;;;;;;;1.65;0.42;;;;;;;20.67;53.36;98666.80;1663281;86;21558;-74
2021/06/13 11:13:13;;;;;;;0.90;0.45;;;;;;;20.57;54.56;98677.63;1666850;83;20995;-74
2021/06/13 11:15:45;;;;;;;0.98;0.30;;;;;;;20.66;54.59;98677.63;1690691;85;21046;-74
2021/06/13 11:18:26;;;;;;;0.55;0.20;;;;;;;20.65;53.93;98671.09;1693216;83;21063;-74
2021/06/13 11:21:07;;;;;;;1.30;0.40;;;;;;;20.64;53.86;98670.88;1692882;85;21046;-74
2021/06/13 11:23:40;;;;;;;1.35;0.60;;;;;;;20.63;53.71;98666.50;1693013;83;20999;-75
2021/06/13 11:26:10;;;;;;;2.37;0.70;;;;;;;20.48;53.38;98670.13;1692810;85;21014;-74
2021/06/13 11:28:42;;;;;;;2.37;0.40;;;;;;;20.31;55.12;98675.48;1699090;83;21026;-74
2021/06/13 11:31:14;;;;;;;3.20;1.10;;;;;;;20.33;56.25;98679.48;1685516;85;21134;-74
2021/06/13 11:33:49;;;;;;;1.77;0.40;;;;;;;20.40;55.42;98670.58;1674396;83;21022;-74
2021/06/13 11:36:23;;;;;;;1.27;0.30;;;;;;;20.45;55.80;98676.38;1667741;86;21077;-75
2021/06/13 11:39:08;;;;;;;1.15;0.40;;;;;;;20.52;56.29;98672.38;1656113;86;21674;-74
2021/06/13 11:41:42;;;;;;;0.62;0.23;;;;;;;20.46;54.03;98674.64;1669089;86;21025;-73
2021/06/13 11:44:23;;;;;;;1.40;0.30;;;;;;;20.32;55.44;98677.91;1683172;84;21485;-74
2021/06/13 11:46:53;;;;;;;2.15;0.60;;;;;;;20.27;55.01;98673.19;1720941;83;20953;-74